sensor_id;sensor_type;location;lat;lon;timestamp;pressure;altitude;pressure_sealevel;temperature;humidity
20394;BME280;10356;50.544;9.642;2023-03-11T00:00:33;96838.03;;;1.82;83.47
20394;BME280;10356;50.544;9.642;2023-03-11T00:03:01;96855.91;;;1.83;83.94
20394;BME280;10356;50.544;9.642;2023-03-11T00:05:29;96861.66;;;1.87;84.36
20394;BME280;10356;50.544;9.642;2023-03-11T00:07:58;96850.75;;;1.83;84.46
20394;BME280;10356;50.544;9.642;2023-03-11T00:10:27;96854.97;;;1.84;84.34
20394;BME280;10356;50.544;9.642;2023-03-11T00:12:54;96854.56;;;1.78;85.25
20394;BME280;10356;50.544;9.642;2023-03-11T00:15:21;96870.25;;;1.73;84.87
20394;BME280;10356;50.544;9.642;2023-03-11T00:17:48;96875.56;;;1.70;85.89
20394;BME280;10356;50.544;9.642;2023-03-11T00:20:17;96869.31;;;1.74;85.56
20394;BME280;10356;50.544;9.642;2023-03-11T00:22:44;96888.50;;;1.68;86.63
20394;BME280;10356;50.544;9.642;2023-03-11T00:25:12;96886.94;;;1.66;87.74
20394;BME280;10356;50.544;9.642;2023-03-11T00:27:39;96891.56;;;1.61;87.92
20394;BME280;10356;50.544;9.642;2023-03-11T00:30:07;96900.00;;;1.63;88.17
20394;BME280;10356;50.544;9.642;2023-03-11T00:32:34;96909.44;;;1.62;89.22
20394;BME280;10356;50.544;9.642;2023-03-11T00:35:00;96906.97;;;1.61;90.13
20394;BME280;10356;50.544;9.642;2023-03-11T00:37:27;96924.22;;;1.59;90.16
20394;BME280;10356;50.544;9.642;2023-03-11T00:39:54;96916.41;;;1.60;90.83
20394;BME280;10356;50.544;9.642;2023-03-11T00:42:21;96919.91;;;1.59;91.01
20394;BME280;10356;50.544;9.642;2023-03-11T00:44:48;96929.13;;;1.62;91.49
20394;BME280;10356;50.544;9.642;2023-03-11T00:47:15;96925.84;;;1.60;91.80
20394;BME280;10356;50.544;9.642;2023-03-11T00:49:41;96935.47;;;1.56;92.34
20394;BME280;10356;50.544;9.642;2023-03-11T00:52:08;96932.69;;;1.47;92.03
20394;BME280;10356;50.544;9.642;2023-03-11T00:54:34;96936.50;;;1.54;90.97
20394;BME280;10356;50.544;9.642;2023-03-11T00:57:01;96941.63;;;1.54;90.89
20394;BME280;10356;50.544;9.642;2023-03-11T00:59:29;96940.09;;;1.51;90.82
20394;BME280;10356;50.544;9.642;2023-03-11T01:01:55;96935.75;;;1.52;91.13
20394;BME280;10356;50.544;9.642;2023-03-11T01:04:22;96949.81;;;1.46;91.82
20394;BME280;10356;50.544;9.642;2023-03-11T01:06:48;96946.34;;;1.47;91.67
20394;BME280;10356;50.544;9.642;2023-03-11T01:09:15;96954.94;;;1.46;92.41
20394;BME280;10356;50.544;9.642;2023-03-11T01:11:41;96966.03;;;1.47;92.80
20394;BME280;10356;50.544;9.642;2023-03-11T01:14:08;96957.59;;;1.45;92.81
20394;BME280;10356;50.544;9.642;2023-03-11T01:16:36;96957.41;;;1.48;92.52
20394;BME280;10356;50.544;9.642;2023-03-11T01:19:02;96965.41;;;1.43;92.05
20394;BME280;10356;50.544;9.642;2023-03-11T01:21:29;96963.47;;;1.47;92.00
20394;BME280;10356;50.544;9.642;2023-03-11T01:23:55;96969.72;;;1.43;92.06
20394;BME280;10356;50.544;9.642;2023-03-11T01:26:22;96975.00;;;1.40;92.22
20394;BME280;10356;50.544;9.642;2023-03-11T01:28:48;96974.84;;;1.43;91.98
20394;BME280;10356;50.544;9.642;2023-03-11T01:31:15;96969.25;;;1.36;92.39
20394;BME280;10356;50.544;9.642;2023-03-11T01:33:43;96986.09;;;1.40;92.98
20394;BME280;10356;50.544;9.642;2023-03-11T01:36:10;96988.94;;;1.36;94.54
20394;BME280;10356;50.544;9.642;2023-03-11T01:38:36;96994.00;;;1.23;96.39
20394;BME280;10356;50.544;9.642;2023-03-11T01:41:03;97001.78;;;1.22;97.06
20394;BME280;10356;50.544;9.642;2023-03-11T01:43:40;97001.78;;;1.22;96.47
20394;BME280;10356;50.544;9.642;2023-03-11T01:46:14;96997.28;;;1.25;95.05
20394;BME280;10356;50.544;9.642;2023-03-11T01:48:45;97006.75;;;1.25;94.25
20394;BME280;10356;50.544;9.642;2023-03-11T01:51:13;97018.47;;;1.29;93.99
20394;BME280;10356;50.544;9.642;2023-03-11T01:53:41;97020.78;;;1.33;93.55
20394;BME280;10356;50.544;9.642;2023-03-11T01:56:08;97030.19;;;1.33;93.02
20394;BME280;10356;50.544;9.642;2023-03-11T01:58:37;97028.38;;;1.35;92.97
20394;BME280;10356;50.544;9.642;2023-03-11T02:01:06;97023.22;;;1.35;92.93
20394;BME280;10356;50.544;9.642;2023-03-11T02:03:35;97030.00;;;1.36;93.26
20394;BME280;10356;50.544;9.642;2023-03-11T02:06:08;97032.19;;;1.42;93.24
20394;BME280;10356;50.544;9.642;2023-03-11T02:08:35;97034.97;;;1.39;92.37
20394;BME280;10356;50.544;9.642;2023-03-11T02:11:04;97041.00;;;1.38;92.69
20394;BME280;10356;50.544;9.642;2023-03-11T02:13:32;97038.25;;;1.41;93.42
20394;BME280;10356;50.544;9.642;2023-03-11T02:16:01;97044.94;;;1.43;92.78
20394;BME280;10356;50.544;9.642;2023-03-11T02:18:28;97039.09;;;1.41;93.04
20394;BME280;10356;50.544;9.642;2023-03-11T02:21:02;97042.81;;;1.36;94.11
20394;BME280;10356;50.544;9.642;2023-03-11T02:23:35;97044.50;;;1.37;94.56
20394;BME280;10356;50.544;9.642;2023-03-11T02:26:08;97040.25;;;1.36;94.25
20394;BME280;10356;50.544;9.642;2023-03-11T02:28:38;97040.47;;;1.33;94.11
20394;BME280;10356;50.544;9.642;2023-03-11T02:31:06;97052.19;;;1.37;93.62
20394;BME280;10356;50.544;9.642;2023-03-11T02:33:33;97047.41;;;1.31;93.65
20394;BME280;10356;50.544;9.642;2023-03-11T02:36:02;97056.47;;;1.36;93.81
20394;BME280;10356;50.544;9.642;2023-03-11T02:38:28;97059.06;;;1.36;94.11
20394;BME280;10356;50.544;9.642;2023-03-11T02:40:56;97055.13;;;1.31;94.53
20394;BME280;10356;50.544;9.642;2023-03-11T02:43:27;97059.50;;;1.29;94.80
20394;BME280;10356;50.544;9.642;2023-03-11T02:45:56;97064.09;;;1.24;93.92
20394;BME280;10356;50.544;9.642;2023-03-11T02:48:24;97069.03;;;1.27;93.86
20394;BME280;10356;50.544;9.642;2023-03-11T02:50:51;97075.06;;;1.26;94.79
20394;BME280;10356;50.544;9.642;2023-03-11T02:53:18;97074.72;;;1.32;94.08
20394;BME280;10356;50.544;9.642;2023-03-11T02:55:44;97078.09;;;1.32;93.88
20394;BME280;10356;50.544;9.642;2023-03-11T02:58:12;97078.38;;;1.28;93.98
20394;BME280;10356;50.544;9.642;2023-03-11T03:00:38;97075.34;;;1.21;93.82
20394;BME280;10356;50.544;9.642;2023-03-11T03:03:06;97087.16;;;1.24;94.04
20394;BME280;10356;50.544;9.642;2023-03-11T03:05:34;97082.31;;;1.19;95.13
20394;BME280;10356;50.544;9.642;2023-03-11T03:08:01;97093.50;;;1.18;95.11
20394;BME280;10356;50.544;9.642;2023-03-11T03:10:31;97096.88;;;1.05;96.31
20394;BME280;10356;50.544;9.642;2023-03-11T03:12:57;97105.28;;;1.07;95.53
20394;BME280;10356;50.544;9.642;2023-03-11T03:15:24;97107.56;;;1.11;95.72
20394;BME280;10356;50.544;9.642;2023-03-11T03:17:51;97110.22;;;1.10;95.68
20394;BME280;10356;50.544;9.642;2023-03-11T03:20:19;97117.94;;;1.10;94.62
20394;BME280;10356;50.544;9.642;2023-03-11T03:22:47;97119.22;;;1.03;94.93
20394;BME280;10356;50.544;9.642;2023-03-11T03:25:14;97115.56;;;1.07;94.83
20394;BME280;10356;50.544;9.642;2023-03-11T03:27:41;97115.00;;;1.16;94.21
20394;BME280;10356;50.544;9.642;2023-03-11T03:30:08;97117.09;;;1.09;94.27
20394;BME280;10356;50.544;9.642;2023-03-11T03:32:35;97116.19;;;1.10;94.56
20394;BME280;10356;50.544;9.642;2023-03-11T03:35:03;97127.81;;;1.02;94.81
20394;BME280;10356;50.544;9.642;2023-03-11T03:37:33;97131.66;;;0.95;94.93
20394;BME280;10356;50.544;9.642;2023-03-11T03:40:00;97138.13;;;0.86;95.27
20394;BME280;10356;50.544;9.642;2023-03-11T03:42:27;97142.75;;;0.79;95.42
20394;BME280;10356;50.544;9.642;2023-03-11T03:44:54;97150.88;;;0.72;95.49
20394;BME280;10356;50.544;9.642;2023-03-11T03:47:20;97161.97;;;0.72;95.18
20394;BME280;10356;50.544;9.642;2023-03-11T03:49:47;97172.22;;;0.72;94.92
20394;BME280;10356;50.544;9.642;2023-03-11T03:52:14;97172.22;;;0.72;94.57
20394;BME280;10356;50.544;9.642;2023-03-11T03:54:41;97178.59;;;0.65;94.76
20394;BME280;10356;50.544;9.642;2023-03-11T03:57:08;97181.47;;;0.59;94.02
20394;BME280;10356;50.544;9.642;2023-03-11T03:59:35;97180.00;;;0.55;94.95
20394;BME280;10356;50.544;9.642;2023-03-11T04:02:01;97187.09;;;0.66;94.67
20394;BME280;10356;50.544;9.642;2023-03-11T04:04:28;97191.56;;;0.62;94.57
20394;BME280;10356;50.544;9.642;2023-03-11T04:06:55;97196.75;;;0.61;95.27
20394;BME280;10356;50.544;9.642;2023-03-11T04:09:21;97194.19;;;0.61;94.54
20394;BME280;10356;50.544;9.642;2023-03-11T04:11:49;97194.28;;;0.59;95.12
20394;BME280;10356;50.544;9.642;2023-03-11T04:14:16;97193.72;;;0.54;95.38
20394;BME280;10356;50.544;9.642;2023-03-11T04:16:42;97195.22;;;0.58;94.87
20394;BME280;10356;50.544;9.642;2023-03-11T04:19:09;97199.50;;;0.58;93.99
20394;BME280;10356;50.544;9.642;2023-03-11T04:21:35;97193.47;;;0.59;93.57
20394;BME280;10356;50.544;9.642;2023-03-11T04:24:02;97203.66;;;0.60;93.08
20394;BME280;10356;50.544;9.642;2023-03-11T04:26:29;97210.75;;;0.55;92.93
20394;BME280;10356;50.544;9.642;2023-03-11T04:28:57;97217.69;;;0.53;93.31
20394;BME280;10356;50.544;9.642;2023-03-11T04:31:24;97209.66;;;0.59;92.97
20394;BME280;10356;50.544;9.642;2023-03-11T04:33:50;97215.38;;;0.64;92.49
20394;BME280;10356;50.544;9.642;2023-03-11T04:36:17;97204.63;;;0.58;92.88
20394;BME280;10356;50.544;9.642;2023-03-11T04:38:43;97212.00;;;0.48;93.66
20394;BME280;10356;50.544;9.642;2023-03-11T04:41:10;97216.06;;;0.52;93.51
20394;BME280;10356;50.544;9.642;2023-03-11T04:43:37;97214.22;;;0.54;93.49
20394;BME280;10356;50.544;9.642;2023-03-11T04:46:05;97217.53;;;0.56;92.92
20394;BME280;10356;50.544;9.642;2023-03-11T04:48:31;97212.56;;;0.53;92.58
20394;BME280;10356;50.544;9.642;2023-03-11T04:50:58;97222.56;;;0.58;92.34
20394;BME280;10356;50.544;9.642;2023-03-11T04:53:25;97228.59;;;0.57;93.03
20394;BME280;10356;50.544;9.642;2023-03-11T04:55:51;97234.72;;;0.54;92.91
20394;BME280;10356;50.544;9.642;2023-03-11T04:58:18;97235.19;;;0.61;92.20
20394;BME280;10356;50.544;9.642;2023-03-11T05:00:45;97243.16;;;0.56;92.26
20394;BME280;10356;50.544;9.642;2023-03-11T05:03:13;97241.16;;;0.61;92.13
20394;BME280;10356;50.544;9.642;2023-03-11T05:05:40;97246.13;;;0.64;91.69
20394;BME280;10356;50.544;9.642;2023-03-11T05:08:06;97244.31;;;0.66;91.92
20394;BME280;10356;50.544;9.642;2023-03-11T05:10:33;97248.38;;;0.70;92.23
20394;BME280;10356;50.544;9.642;2023-03-11T05:13:01;97256.38;;;0.64;91.90
20394;BME280;10356;50.544;9.642;2023-03-11T05:15:27;97248.75;;;0.63;92.80
20394;BME280;10356;50.544;9.642;2023-03-11T05:17:55;97249.84;;;0.59;92.71
20394;BME280;10356;50.544;9.642;2023-03-11T05:20:23;97248.09;;;0.59;92.53
20394;BME280;10356;50.544;9.642;2023-03-11T05:22:49;97259.19;;;0.60;92.21
20394;BME280;10356;50.544;9.642;2023-03-11T05:25:16;97263.47;;;0.59;91.99
20394;BME280;10356;50.544;9.642;2023-03-11T05:27:43;97268.28;;;0.65;92.13
20394;BME280;10356;50.544;9.642;2023-03-11T05:30:10;97266.78;;;0.61;91.48
20394;BME280;10356;50.544;9.642;2023-03-11T05:32:36;97270.34;;;0.59;92.00
20394;BME280;10356;50.544;9.642;2023-03-11T05:35:04;97268.47;;;0.62;91.66
20394;BME280;10356;50.544;9.642;2023-03-11T05:37:34;97274.72;;;0.57;92.12
20394;BME280;10356;50.544;9.642;2023-03-11T05:40:04;97276.53;;;0.55;92.75
20394;BME280;10356;50.544;9.642;2023-03-11T05:42:31;97272.25;;;0.55;93.15
20394;BME280;10356;50.544;9.642;2023-03-11T05:44:58;97280.34;;;0.63;93.02
20394;BME280;10356;50.544;9.642;2023-03-11T05:47:24;97276.88;;;0.64;92.87
20394;BME280;10356;50.544;9.642;2023-03-11T05:49:50;97278.75;;;0.61;92.57
20394;BME280;10356;50.544;9.642;2023-03-11T05:52:17;97276.94;;;0.63;92.10
20394;BME280;10356;50.544;9.642;2023-03-11T05:54:48;97278.84;;;0.59;91.95
20394;BME280;10356;50.544;9.642;2023-03-11T05:57:14;97282.25;;;0.60;92.24
20394;BME280;10356;50.544;9.642;2023-03-11T05:59:41;97283.25;;;0.57;91.91
20394;BME280;10356;50.544;9.642;2023-03-11T06:02:07;97283.97;;;0.59;91.46
20394;BME280;10356;50.544;9.642;2023-03-11T06:04:34;97277.22;;;0.58;91.11
20394;BME280;10356;50.544;9.642;2023-03-11T06:07:01;97303.50;;;0.46;91.04
20394;BME280;10356;50.544;9.642;2023-03-11T06:09:27;97300.94;;;0.46;90.39
20394;BME280;10356;50.544;9.642;2023-03-11T06:11:55;97300.00;;;0.47;90.39
20394;BME280;10356;50.544;9.642;2023-03-11T06:14:22;97305.78;;;0.51;90.13
20394;BME280;10356;50.544;9.642;2023-03-11T06:16:48;97309.94;;;0.53;89.61
20394;BME280;10356;50.544;9.642;2023-03-11T06:19:15;97311.94;;;0.48;90.02
20394;BME280;10356;50.544;9.642;2023-03-11T06:21:41;97318.53;;;0.52;88.88
20394;BME280;10356;50.544;9.642;2023-03-11T06:24:08;97319.44;;;0.51;89.49
20394;BME280;10356;50.544;9.642;2023-03-11T06:26:34;97320.34;;;0.50;88.77
20394;BME280;10356;50.544;9.642;2023-03-11T06:29:02;97323.81;;;0.49;89.01
20394;BME280;10356;50.544;9.642;2023-03-11T06:31:29;97318.78;;;0.48;88.98
20394;BME280;10356;50.544;9.642;2023-03-11T06:33:56;97323.50;;;0.55;88.64
20394;BME280;10356;50.544;9.642;2023-03-11T06:36:24;97333.66;;;0.57;89.25
20394;BME280;10356;50.544;9.642;2023-03-11T06:38:51;97329.59;;;0.53;89.56
20394;BME280;10356;50.544;9.642;2023-03-11T06:41:18;97337.06;;;0.57;89.54
20394;BME280;10356;50.544;9.642;2023-03-11T06:43:44;97340.22;;;0.62;89.29
20394;BME280;10356;50.544;9.642;2023-03-11T06:46:15;97343.84;;;0.58;88.72
20394;BME280;10356;50.544;9.642;2023-03-11T06:48:42;97354.09;;;0.58;88.25
20394;BME280;10356;50.544;9.642;2023-03-11T06:51:10;97357.13;;;0.65;88.05
20394;BME280;10356;50.544;9.642;2023-03-11T06:53:37;97366.84;;;0.75;87.99
20394;BME280;10356;50.544;9.642;2023-03-11T06:56:05;97372.31;;;0.85;87.83
20394;BME280;10356;50.544;9.642;2023-03-11T06:58:34;97369.69;;;0.87;87.01
20394;BME280;10356;50.544;9.642;2023-03-11T07:01:00;97369.81;;;0.83;87.22
20394;BME280;10356;50.544;9.642;2023-03-11T07:03:29;97382.81;;;0.80;87.35
20394;BME280;10356;50.544;9.642;2023-03-11T07:05:56;97385.38;;;0.80;87.02
20394;BME280;10356;50.544;9.642;2023-03-11T07:08:23;97388.50;;;0.85;87.60
20394;BME280;10356;50.544;9.642;2023-03-11T07:10:59;97386.38;;;0.94;87.27
20394;BME280;10356;50.544;9.642;2023-03-11T07:13:26;97396.94;;;0.88;86.83
20394;BME280;10356;50.544;9.642;2023-03-11T07:15:59;97401.28;;;1.03;87.06
20394;BME280;10356;50.544;9.642;2023-03-11T07:18:28;97401.03;;;1.07;87.39
20394;BME280;10356;50.544;9.642;2023-03-11T07:20:55;97404.94;;;0.99;85.59
20394;BME280;10356;50.544;9.642;2023-03-11T07:23:21;97410.22;;;1.11;85.28
20394;BME280;10356;50.544;9.642;2023-03-11T07:25:48;97417.66;;;1.16;85.69
20394;BME280;10356;50.544;9.642;2023-03-11T07:28:16;97422.56;;;1.20;86.22
20394;BME280;10356;50.544;9.642;2023-03-11T07:30:42;97433.47;;;1.24;86.82
20394;BME280;10356;50.544;9.642;2023-03-11T07:33:10;97430.06;;;1.23;85.51
20394;BME280;10356;50.544;9.642;2023-03-11T07:35:39;97432.06;;;1.18;85.76
20394;BME280;10356;50.544;9.642;2023-03-11T07:38:06;97430.66;;;1.13;84.75
20394;BME280;10356;50.544;9.642;2023-03-11T07:40:32;97439.59;;;1.21;85.69
20394;BME280;10356;50.544;9.642;2023-03-11T07:42:59;97432.41;;;1.12;85.58
20394;BME280;10356;50.544;9.642;2023-03-11T07:45:26;97448.44;;;1.16;85.24
20394;BME280;10356;50.544;9.642;2023-03-11T07:47:52;97445.13;;;1.14;85.87
20394;BME280;10356;50.544;9.642;2023-03-11T07:50:19;97452.09;;;1.12;84.88
20394;BME280;10356;50.544;9.642;2023-03-11T07:52:48;97455.47;;;1.12;84.70
20394;BME280;10356;50.544;9.642;2023-03-11T07:55:14;97465.56;;;1.15;85.18
20394;BME280;10356;50.544;9.642;2023-03-11T07:57:41;97470.63;;;1.17;85.05
20394;BME280;10356;50.544;9.642;2023-03-11T08:00:09;97463.75;;;1.17;85.10
20394;BME280;10356;50.544;9.642;2023-03-11T08:02:37;97483.88;;;1.25;84.69
20394;BME280;10356;50.544;9.642;2023-03-11T08:05:04;97483.94;;;1.23;85.06
20394;BME280;10356;50.544;9.642;2023-03-11T08:07:30;97492.00;;;1.33;84.95
20394;BME280;10356;50.544;9.642;2023-03-11T08:09:58;97490.97;;;1.20;84.58
20394;BME280;10356;50.544;9.642;2023-03-11T08:12:25;97502.31;;;1.16;84.82
20394;BME280;10356;50.544;9.642;2023-03-11T08:14:51;97502.63;;;1.10;85.11
20394;BME280;10356;50.544;9.642;2023-03-11T08:17:18;97503.38;;;1.12;86.37
20394;BME280;10356;50.544;9.642;2023-03-11T08:19:44;97517.69;;;1.16;87.07
20394;BME280;10356;50.544;9.642;2023-03-11T08:22:11;97513.41;;;1.16;87.15
20394;BME280;10356;50.544;9.642;2023-03-11T08:24:37;97512.44;;;1.19;87.87
20394;BME280;10356;50.544;9.642;2023-03-11T08:27:06;97520.44;;;1.13;86.94
20394;BME280;10356;50.544;9.642;2023-03-11T08:29:33;97530.22;;;1.22;87.97
20394;BME280;10356;50.544;9.642;2023-03-11T08:32:01;97527.66;;;1.22;87.94
20394;BME280;10356;50.544;9.642;2023-03-11T08:34:28;97544.31;;;1.30;88.17
20394;BME280;10356;50.544;9.642;2023-03-11T08:36:54;97536.91;;;1.41;87.48
20394;BME280;10356;50.544;9.642;2023-03-11T08:39:21;97547.50;;;1.51;86.10
20394;BME280;10356;50.544;9.642;2023-03-11T08:41:48;97543.19;;;1.51;84.90
20394;BME280;10356;50.544;9.642;2023-03-11T08:44:16;97551.81;;;1.66;86.03
20394;BME280;10356;50.544;9.642;2023-03-11T08:46:42;97558.94;;;1.77;82.73
20394;BME280;10356;50.544;9.642;2023-03-11T08:49:09;97561.28;;;1.81;80.20
20394;BME280;10356;50.544;9.642;2023-03-11T08:51:36;97564.81;;;1.94;80.39
20394;BME280;10356;50.544;9.642;2023-03-11T08:54:03;97578.69;;;2.07;78.67
20394;BME280;10356;50.544;9.642;2023-03-11T08:56:30;97582.31;;;2.03;76.33
20394;BME280;10356;50.544;9.642;2023-03-11T08:58:56;97577.09;;;2.05;74.30
20394;BME280;10356;50.544;9.642;2023-03-11T09:01:25;97578.34;;;2.13;75.09
20394;BME280;10356;50.544;9.642;2023-03-11T09:03:51;97580.91;;;2.13;74.58
20394;BME280;10356;50.544;9.642;2023-03-11T09:06:18;97584.28;;;1.98;76.29
20394;BME280;10356;50.544;9.642;2023-03-11T09:08:45;97592.25;;;2.09;75.08
20394;BME280;10356;50.544;9.642;2023-03-11T09:11:14;97596.81;;;2.04;72.48
20394;BME280;10356;50.544;9.642;2023-03-11T09:13:42;97594.56;;;1.98;71.62
20394;BME280;10356;50.544;9.642;2023-03-11T09:16:11;97597.88;;;2.00;72.90
20394;BME280;10356;50.544;9.642;2023-03-11T09:18:39;97593.91;;;2.10;73.10
20394;BME280;10356;50.544;9.642;2023-03-11T09:21:06;97599.88;;;2.11;72.41
20394;BME280;10356;50.544;9.642;2023-03-11T09:23:32;97597.91;;;2.16;71.33
20394;BME280;10356;50.544;9.642;2023-03-11T09:25:59;97585.81;;;2.18;70.79
20394;BME280;10356;50.544;9.642;2023-03-11T09:28:28;97593.41;;;2.35;69.44
20394;BME280;10356;50.544;9.642;2023-03-11T09:30:55;97594.25;;;2.81;68.40
20394;BME280;10356;50.544;9.642;2023-03-11T09:33:22;97588.47;;;3.35;67.08
20394;BME280;10356;50.544;9.642;2023-03-11T09:35:50;97596.19;;;3.91;63.90
20394;BME280;10356;50.544;9.642;2023-03-11T09:38:16;97595.31;;;4.05;60.76
20394;BME280;10356;50.544;9.642;2023-03-11T09:40:50;97595.16;;;3.80;60.10
20394;BME280;10356;50.544;9.642;2023-03-11T09:43:30;97595.09;;;3.81;64.24
20394;BME280;10356;50.544;9.642;2023-03-11T09:46:07;97596.00;;;3.52;60.68
20394;BME280;10356;50.544;9.642;2023-03-11T09:48:47;97602.88;;;3.23;62.16
20394;BME280;10356;50.544;9.642;2023-03-11T09:51:22;97607.41;;;3.34;65.63
20394;BME280;10356;50.544;9.642;2023-03-11T09:53:54;97607.22;;;3.23;64.69
20394;BME280;10356;50.544;9.642;2023-03-11T09:56:23;97607.00;;;3.12;63.67
20394;BME280;10356;50.544;9.642;2023-03-11T09:58:53;97616.09;;;3.17;66.44
20394;BME280;10356;50.544;9.642;2023-03-11T10:01:23;97614.81;;;3.10;64.44
20394;BME280;10356;50.544;9.642;2023-03-11T10:03:54;97610.06;;;2.89;63.25
20394;BME280;10356;50.544;9.642;2023-03-11T10:06:25;97618.19;;;2.97;64.34
20394;BME280;10356;50.544;9.642;2023-03-11T10:08:58;97621.34;;;3.16;64.53
20394;BME280;10356;50.544;9.642;2023-03-11T10:11:49;97619.41;;;3.19;63.82
20394;BME280;10356;50.544;9.642;2023-03-11T10:14:55;97627.22;;;3.18;62.65
20394;BME280;10356;50.544;9.642;2023-03-11T10:17:43;97622.44;;;3.12;61.44
20394;BME280;10356;50.544;9.642;2023-03-11T10:20:18;97620.94;;;3.08;60.70
20394;BME280;10356;50.544;9.642;2023-03-11T10:22:54;97628.28;;;3.00;59.53
20394;BME280;10356;50.544;9.642;2023-03-11T10:25:27;97630.72;;;3.17;57.85
20394;BME280;10356;50.544;9.642;2023-03-11T10:28:00;97638.78;;;3.55;55.02
20394;BME280;10356;50.544;9.642;2023-03-11T10:30:32;97622.47;;;3.96;52.89
20394;BME280;10356;50.544;9.642;2023-03-11T10:33:02;97617.03;;;4.56;52.54
20394;BME280;10356;50.544;9.642;2023-03-11T10:35:37;97605.72;;;5.10;46.72
20394;BME280;10356;50.544;9.642;2023-03-11T10:38:12;97610.59;;;5.77;48.77
20394;BME280;10356;50.544;9.642;2023-03-11T10:40:41;97608.66;;;6.30;47.44
20394;BME280;10356;50.544;9.642;2023-03-11T10:43:10;97611.25;;;6.30;45.89
20394;BME280;10356;50.544;9.642;2023-03-11T10:45:41;97602.09;;;6.01;43.52
20394;BME280;10356;50.544;9.642;2023-03-11T10:48:09;97604.59;;;6.38;45.22
20394;BME280;10356;50.544;9.642;2023-03-11T10:50:42;97607.38;;;6.48;44.95
20394;BME280;10356;50.544;9.642;2023-03-11T10:53:15;97610.75;;;6.25;45.16
20394;BME280;10356;50.544;9.642;2023-03-11T10:55:45;97607.69;;;5.82;44.48
20394;BME280;10356;50.544;9.642;2023-03-11T10:58:14;97602.31;;;5.72;47.16
20394;BME280;10356;50.544;9.642;2023-03-11T11:00:40;97613.97;;;5.02;50.85
20394;BME280;10356;50.544;9.642;2023-03-11T11:03:19;97617.75;;;4.97;45.70
20394;BME280;10356;50.544;9.642;2023-03-11T11:05:56;97615.88;;;4.86;51.11
20394;BME280;10356;50.544;9.642;2023-03-11T11:08:25;97619.78;;;4.79;48.08
20394;BME280;10356;50.544;9.642;2023-03-11T11:10:54;97624.88;;;4.67;46.72
20394;BME280;10356;50.544;9.642;2023-03-11T11:13:22;97621.84;;;4.74;48.22
20394;BME280;10356;50.544;9.642;2023-03-11T11:15:58;97630.59;;;4.72;49.16
20394;BME280;10356;50.544;9.642;2023-03-11T11:18:27;97621.84;;;4.74;50.79
20394;BME280;10356;50.544;9.642;2023-03-11T11:21:03;97631.81;;;4.66;49.30
20394;BME280;10356;50.544;9.642;2023-03-11T11:23:36;97626.91;;;4.76;49.23
20394;BME280;10356;50.544;9.642;2023-03-11T11:26:05;97633.97;;;4.60;49.50
20394;BME280;10356;50.544;9.642;2023-03-11T11:28:34;97633.63;;;4.78;51.24
20394;BME280;10356;50.544;9.642;2023-03-11T11:31:03;97636.78;;;4.69;52.38
20394;BME280;10356;50.544;9.642;2023-03-11T11:33:31;97628.19;;;4.69;51.73
20394;BME280;10356;50.544;9.642;2023-03-11T11:36:00;97636.44;;;4.88;51.89
20394;BME280;10356;50.544;9.642;2023-03-11T11:38:28;97631.84;;;5.18;49.67
20394;BME280;10356;50.544;9.642;2023-03-11T11:40:58;97623.69;;;5.11;50.17
20394;BME280;10356;50.544;9.642;2023-03-11T11:43:43;97624.19;;;5.04;48.62
20394;BME280;10356;50.544;9.642;2023-03-11T11:46:18;97625.81;;;4.92;48.36
20394;BME280;10356;50.544;9.642;2023-03-11T11:48:49;97628.81;;;4.99;47.89
20394;BME280;10356;50.544;9.642;2023-03-11T11:51:22;97619.25;;;5.13;46.92
20394;BME280;10356;50.544;9.642;2023-03-11T11:53:54;97615.97;;;5.24;46.08
20394;BME280;10356;50.544;9.642;2023-03-11T11:56:25;97626.09;;;5.27;46.54
20394;BME280;10356;50.544;9.642;2023-03-11T11:58:52;97624.44;;;5.26;45.27
20394;BME280;10356;50.544;9.642;2023-03-11T12:01:25;97630.84;;;5.33;46.30
20394;BME280;10356;50.544;9.642;2023-03-11T12:04:23;97630.03;;;5.45;45.97
20394;BME280;10356;50.544;9.642;2023-03-11T12:07:03;97627.13;;;5.50;45.67
20394;BME280;10356;50.544;9.642;2023-03-11T12:09:37;97631.03;;;5.30;48.12
20394;BME280;10356;50.544;9.642;2023-03-11T12:12:19;97638.72;;;5.44;45.93
20394;BME280;10356;50.544;9.642;2023-03-11T12:14:48;97631.69;;;5.71;45.84
20394;BME280;10356;50.544;9.642;2023-03-11T12:17:22;97626.81;;;6.05;44.72
20394;BME280;10356;50.544;9.642;2023-03-11T12:19:52;97632.56;;;6.21;46.16
20394;BME280;10356;50.544;9.642;2023-03-11T12:22:58;97628.66;;;6.15;46.77
20394;BME280;10356;50.544;9.642;2023-03-11T12:25:33;97636.66;;;6.48;46.02
20394;BME280;10356;50.544;9.642;2023-03-11T12:28:15;97637.28;;;5.90;45.84
20394;BME280;10356;50.544;9.642;2023-03-11T12:30:46;97641.59;;;5.52;45.70
20394;BME280;10356;50.544;9.642;2023-03-11T12:33:16;97626.13;;;5.77;45.95
20394;BME280;10356;50.544;9.642;2023-03-11T12:35:48;97630.88;;;5.71;46.31
20394;BME280;10356;50.544;9.642;2023-03-11T12:38:26;97635.84;;;5.61;46.58
20394;BME280;10356;50.544;9.642;2023-03-11T12:41:03;97630.25;;;5.67;46.33
20394;BME280;10356;50.544;9.642;2023-03-11T12:43:59;97630.63;;;5.74;46.86
20394;BME280;10356;50.544;9.642;2023-03-11T12:49:35;97638.72;;;5.69;46.02
20394;BME280;10356;50.544;9.642;2023-03-11T12:52:15;97629.22;;;5.57;45.62
20394;BME280;10356;50.544;9.642;2023-03-11T12:54:43;97627.34;;;5.72;44.68
20394;BME280;10356;50.544;9.642;2023-03-11T12:57:26;97638.53;;;5.98;45.86
20394;BME280;10356;50.544;9.642;2023-03-11T13:00:21;97634.16;;;6.11;45.34
20394;BME280;10356;50.544;9.642;2023-03-11T13:03:21;97635.13;;;5.97;45.64
20394;BME280;10356;50.544;9.642;2023-03-11T13:05:57;97629.66;;;5.89;45.67
20394;BME280;10356;50.544;9.642;2023-03-11T13:08:25;97629.63;;;6.02;46.46
20394;BME280;10356;50.544;9.642;2023-03-11T13:10:54;97631.28;;;5.77;44.50
20394;BME280;10356;50.544;9.642;2023-03-11T13:13:29;97633.38;;;5.98;45.05
20394;BME280;10356;50.544;9.642;2023-03-11T13:16:34;97627.78;;;6.04;44.65
20394;BME280;10356;50.544;9.642;2023-03-11T13:19:35;97636.13;;;6.07;44.09
20394;BME280;10356;50.544;9.642;2023-03-11T13:22:04;97632.59;;;6.08;45.10
20394;BME280;10356;50.544;9.642;2023-03-11T13:24:48;97632.28;;;6.13;44.47